sensor_id;sensor_type;location;lat;lon;timestamp;P1;durP1;ratioP1;P2;durP2;ratioP2
45232;SDS011;30969;51.052;17.056;2023-02-11T00:00:20;46.88;;;23.40;;
45232;SDS011;30969;51.052;17.056;2023-02-11T00:05:43;46.53;;;22.08;;
45232;SDS011;30969;51.052;17.056;2023-02-11T00:10:50;46.10;;;24.10;;
45232;SDS011;30969;51.052;17.056;2023-02-11T00:15:55;44.85;;;22.48;;
45232;SDS011;30969;51.052;17.056;2023-02-11T00:20:58;45.35;;;22.63;;
45232;SDS011;30969;51.052;17.056;2023-02-11T00:26:02;44.45;;;22.10;;
45232;SDS011;30969;51.052;17.056;2023-02-11T00:31:07;44.22;;;23.55;;
45232;SDS011;30969;51.052;17.056;2023-02-11T00:36:12;48.38;;;22.88;;
45232;SDS011;30969;51.052;17.056;2023-02-11T00:41:18;45.20;;;23.45;;
45232;SDS011;30969;51.052;17.056;2023-02-11T00:46:23;44.78;;;22.48;;
45232;SDS011;30969;51.052;17.056;2023-02-11T00:51:27;44.40;;;22.48;;
45232;SDS011;30969;51.052;17.056;2023-02-11T00:56:30;47.10;;;25.00;;
45232;SDS011;30969;51.052;17.056;2023-02-11T01:01:35;47.20;;;22.00;;
45232;SDS011;30969;51.052;17.056;2023-02-11T01:06:39;48.40;;;24.63;;
45232;SDS011;30969;51.052;17.056;2023-02-11T01:11:42;45.42;;;25.17;;
45232;SDS011;30969;51.052;17.056;2023-02-11T01:16:47;44.72;;;23.27;;
45232;SDS011;30969;51.052;17.056;2023-02-11T01:21:50;46.75;;;23.88;;
45232;SDS011;30969;51.052;17.056;2023-02-11T01:26:54;47.67;;;24.00;;
45232;SDS011;30969;51.052;17.056;2023-02-11T01:31:58;44.80;;;23.35;;
45232;SDS011;30969;51.052;17.056;2023-02-11T01:37:02;52.53;;;25.85;;
45232;SDS011;30969;51.052;17.056;2023-02-11T01:42:08;48.25;;;24.08;;
45232;SDS011;30969;51.052;17.056;2023-02-11T01:47:14;47.47;;;24.45;;
45232;SDS011;30969;51.052;17.056;2023-02-11T01:52:18;48.95;;;24.27;;
45232;SDS011;30969;51.052;17.056;2023-02-11T01:57:27;51.33;;;24.77;;
45232;SDS011;30969;51.052;17.056;2023-02-11T02:02:37;52.75;;;25.42;;
45232;SDS011;30969;51.052;17.056;2023-02-11T02:07:48;43.08;;;24.70;;
45232;SDS011;30969;51.052;17.056;2023-02-11T02:12:57;47.00;;;23.02;;
45232;SDS011;30969;51.052;17.056;2023-02-11T02:18:19;50.28;;;26.02;;
45232;SDS011;30969;51.052;17.056;2023-02-11T02:23:34;44.75;;;23.77;;
45232;SDS011;30969;51.052;17.056;2023-02-11T02:29:03;44.97;;;23.50;;
45232;SDS011;30969;51.052;17.056;2023-02-11T02:34:32;39.70;;;21.98;;
45232;SDS011;30969;51.052;17.056;2023-02-11T02:39:43;44.45;;;21.83;;
45232;SDS011;30969;51.052;17.056;2023-02-11T02:44:49;42.97;;;23.20;;
45232;SDS011;30969;51.052;17.056;2023-02-11T02:49:56;41.45;;;22.48;;
45232;SDS011;30969;51.052;17.056;2023-02-11T02:55:16;41.22;;;21.42;;
45232;SDS011;30969;51.052;17.056;2023-02-11T03:00:28;41.13;;;23.15;;
45232;SDS011;30969;51.052;17.056;2023-02-11T03:05:40;39.53;;;21.42;;
45232;SDS011;30969;51.052;17.056;2023-02-11T03:10:51;37.97;;;20.58;;
45232;SDS011;30969;51.052;17.056;2023-02-11T03:15:56;36.17;;;20.70;;
45232;SDS011;30969;51.052;17.056;2023-02-11T03:21:04;39.38;;;21.50;;
45232;SDS011;30969;51.052;17.056;2023-02-11T03:26:11;40.33;;;21.13;;
45232;SDS011;30969;51.052;17.056;2023-02-11T03:31:24;40.03;;;20.80;;
45232;SDS011;30969;51.052;17.056;2023-02-11T03:36:34;36.85;;;19.55;;
45232;SDS011;30969;51.052;17.056;2023-02-11T03:41:47;38.78;;;21.00;;
45232;SDS011;30969;51.052;17.056;2023-02-11T03:46:54;35.53;;;19.83;;
45232;SDS011;30969;51.052;17.056;2023-02-11T03:51:59;38.63;;;21.08;;
45232;SDS011;30969;51.052;17.056;2023-02-11T03:57:06;35.97;;;18.65;;
45232;SDS011;30969;51.052;17.056;2023-02-11T04:02:10;31.38;;;18.35;;
45232;SDS011;30969;51.052;17.056;2023-02-11T04:07:15;31.48;;;17.92;;
45232;SDS011;30969;51.052;17.056;2023-02-11T04:12:19;33.08;;;19.42;;
45232;SDS011;30969;51.052;17.056;2023-02-11T04:17:22;34.30;;;19.58;;
45232;SDS011;30969;51.052;17.056;2023-02-11T04:22:27;32.03;;;17.70;;
45232;SDS011;30969;51.052;17.056;2023-02-11T04:27:31;36.28;;;19.58;;
45232;SDS011;30969;51.052;17.056;2023-02-11T04:32:35;36.42;;;20.15;;
45232;SDS011;30969;51.052;17.056;2023-02-11T04:37:40;35.90;;;19.75;;
45232;SDS011;30969;51.052;17.056;2023-02-11T04:42:43;34.40;;;19.33;;
45232;SDS011;30969;51.052;17.056;2023-02-11T04:47:47;37.20;;;19.60;;
45232;SDS011;30969;51.052;17.056;2023-02-11T04:52:52;38.28;;;20.52;;
45232;SDS011;30969;51.052;17.056;2023-02-11T04:57:56;37.25;;;20.77;;
45232;SDS011;30969;51.052;17.056;2023-02-11T05:02:59;32.92;;;20.10;;
45232;SDS011;30969;51.052;17.056;2023-02-11T05:08:04;37.20;;;20.52;;
45232;SDS011;30969;51.052;17.056;2023-02-11T05:13:08;35.30;;;19.17;;
45232;SDS011;30969;51.052;17.056;2023-02-11T05:18:11;37.78;;;20.23;;
45232;SDS011;30969;51.052;17.056;2023-02-11T05:23:16;40.10;;;22.02;;
45232;SDS011;30969;51.052;17.056;2023-02-11T05:28:20;35.95;;;20.30;;
45232;SDS011;30969;51.052;17.056;2023-02-11T05:33:23;36.58;;;20.45;;
45232;SDS011;30969;51.052;17.056;2023-02-11T05:38:28;39.10;;;22.20;;
45232;SDS011;30969;51.052;17.056;2023-02-11T05:43:32;39.50;;;21.20;;
45232;SDS011;30969;51.052;17.056;2023-02-11T05:48:37;36.28;;;20.02;;
45232;SDS011;30969;51.052;17.056;2023-02-11T05:53:42;39.50;;;20.95;;
45232;SDS011;30969;51.052;17.056;2023-02-11T05:58:45;38.72;;;21.77;;
45232;SDS011;30969;51.052;17.056;2023-02-11T06:03:48;33.05;;;19.35;;
45232;SDS011;30969;51.052;17.056;2023-02-11T06:08:53;36.90;;;21.30;;
45232;SDS011;30969;51.052;17.056;2023-02-11T06:13:57;40.63;;;21.45;;
45232;SDS011;30969;51.052;17.056;2023-02-11T06:19:00;31.75;;;18.45;;
45232;SDS011;30969;51.052;17.056;2023-02-11T06:24:06;32.97;;;18.95;;
45232;SDS011;30969;51.052;17.056;2023-02-11T06:29:09;39.78;;;21.30;;
45232;SDS011;30969;51.052;17.056;2023-02-11T06:34:13;34.85;;;20.05;;
45232;SDS011;30969;51.052;17.056;2023-02-11T06:39:18;35.22;;;19.70;;
45232;SDS011;30969;51.052;17.056;2023-02-11T06:44:21;33.45;;;17.83;;
45232;SDS011;30969;51.052;17.056;2023-02-11T06:49:25;34.72;;;18.65;;
45232;SDS011;30969;51.052;17.056;2023-02-11T06:54:30;30.45;;;17.20;;
45232;SDS011;30969;51.052;17.056;2023-02-11T06:59:34;34.10;;;18.40;;
45232;SDS011;30969;51.052;17.056;2023-02-11T07:04:37;33.78;;;18.58;;
45232;SDS011;30969;51.052;17.056;2023-02-11T07:09:42;30.80;;;16.88;;
45232;SDS011;30969;51.052;17.056;2023-02-11T07:14:45;32.20;;;17.83;;
45232;SDS011;30969;51.052;17.056;2023-02-11T07:19:49;31.08;;;17.85;;
45232;SDS011;30969;51.052;17.056;2023-02-11T07:24:53;30.00;;;16.75;;
45232;SDS011;30969;51.052;17.056;2023-02-11T07:29:57;32.20;;;18.27;;
45232;SDS011;30969;51.052;17.056;2023-02-11T07:35:01;30.00;;;17.30;;
45232;SDS011;30969;51.052;17.056;2023-02-11T07:40:07;31.85;;;17.05;;
45232;SDS011;30969;51.052;17.056;2023-02-11T07:45:11;34.08;;;18.20;;
45232;SDS011;30969;51.052;17.056;2023-02-11T07:50:16;34.42;;;17.00;;
45232;SDS011;30969;51.052;17.056;2023-02-11T07:55:20;30.85;;;17.48;;
45232;SDS011;30969;51.052;17.056;2023-02-11T08:00:24;35.55;;;18.20;;
45232;SDS011;30969;51.052;17.056;2023-02-11T08:05:27;30.75;;;17.13;;
45232;SDS011;30969;51.052;17.056;2023-02-11T08:10:32;34.05;;;17.73;;
45232;SDS011;30969;51.052;17.056;2023-02-11T08:15:35;36.72;;;18.13;;
45232;SDS011;30969;51.052;17.056;2023-02-11T08:20:39;31.92;;;17.48;;
45232;SDS011;30969;51.052;17.056;2023-02-11T08:25:44;30.65;;;17.27;;
45232;SDS011;30969;51.052;17.056;2023-02-11T08:30:47;31.70;;;18.35;;
45232;SDS011;30969;51.052;17.056;2023-02-11T08:35:51;31.25;;;17.25;;
45232;SDS011;30969;51.052;17.056;2023-02-11T08:40:57;32.45;;;17.90;;
45232;SDS011;30969;51.052;17.056;2023-02-11T08:46:02;33.70;;;19.05;;
45232;SDS011;30969;51.052;17.056;2023-02-11T08:51:06;33.25;;;18.80;;
45232;SDS011;30969;51.052;17.056;2023-02-11T08:56:12;35.70;;;18.30;;
45232;SDS011;30969;51.052;17.056;2023-02-11T09:01:18;33.20;;;18.88;;
45232;SDS011;30969;51.052;17.056;2023-02-11T09:06:24;30.58;;;18.20;;
45232;SDS011;30969;51.052;17.056;2023-02-11T09:11:31;32.38;;;18.30;;
45232;SDS011;30969;51.052;17.056;2023-02-11T09:16:35;36.08;;;19.00;;
45232;SDS011;30969;51.052;17.056;2023-02-11T09:21:39;33.22;;;17.95;;
45232;SDS011;30969;51.052;17.056;2023-02-11T09:26:43;34.38;;;18.13;;
45232;SDS011;30969;51.052;17.056;2023-02-11T09:31:47;32.67;;;19.75;;
45232;SDS011;30969;51.052;17.056;2023-02-11T09:36:51;31.52;;;18.17;;
45232;SDS011;30969;51.052;17.056;2023-02-11T09:47:48;32.50;;;17.33;;
45232;SDS011;30969;51.052;17.056;2023-02-11T09:52:57;34.13;;;18.02;;
45232;SDS011;30969;51.052;17.056;2023-02-11T09:58:04;29.88;;;17.45;;
45232;SDS011;30969;51.052;17.056;2023-02-11T10:08:46;27.70;;;17.08;;
45232;SDS011;30969;51.052;17.056;2023-02-11T10:14:00;31.85;;;17.35;;
45232;SDS011;30969;51.052;17.056;2023-02-11T10:19:18;27.30;;;16.27;;
45232;SDS011;30969;51.052;17.056;2023-02-11T10:24:34;27.55;;;14.70;;
45232;SDS011;30969;51.052;17.056;2023-02-11T10:29:39;22.80;;;13.90;;
45232;SDS011;30969;51.052;17.056;2023-02-11T10:34:47;24.95;;;15.63;;
45232;SDS011;30969;51.052;17.056;2023-02-11T10:39:50;26.08;;;14.52;;
45232;SDS011;30969;51.052;17.056;2023-02-11T10:44:56;35.85;;;19.67;;
45232;SDS011;30969;51.052;17.056;2023-02-11T10:50:07;29.48;;;16.90;;
45232;SDS011;30969;51.052;17.056;2023-02-11T10:55:22;31.77;;;16.85;;
45232;SDS011;30969;51.052;17.056;2023-02-11T11:00:32;26.70;;;15.60;;
45232;SDS011;30969;51.052;17.056;2023-02-11T11:05:46;28.38;;;16.38;;
45232;SDS011;30969;51.052;17.056;2023-02-11T11:11:00;25.58;;;15.23;;
45232;SDS011;30969;51.052;17.056;2023-02-11T11:16:14;28.17;;;16.08;;
45232;SDS011;30969;51.052;17.056;2023-02-11T11:21:22;30.77;;;17.75;;
45232;SDS011;30969;51.052;17.056;2023-02-11T11:26:28;29.17;;;17.17;;
45232;SDS011;30969;51.052;17.056;2023-02-11T11:31:45;34.72;;;18.60;;
45232;SDS011;30969;51.052;17.056;2023-02-11T11:36:57;35.83;;;20.13;;
45232;SDS011;30969;51.052;17.056;2023-02-11T11:42:03;28.98;;;18.60;;
45232;SDS011;30969;51.052;17.056;2023-02-11T11:52:34;36.50;;;19.25;;
45232;SDS011;30969;51.052;17.056;2023-02-11T11:57:41;30.90;;;18.33;;
45232;SDS011;30969;51.052;17.056;2023-02-11T12:03:08;32.30;;;17.38;;
45232;SDS011;30969;51.052;17.056;2023-02-11T12:08:28;35.55;;;20.30;;
45232;SDS011;30969;51.052;17.056;2023-02-11T12:13:47;30.38;;;18.25;;
45232;SDS011;30969;51.052;17.056;2023-02-11T12:19:24;31.75;;;17.95;;
45232;SDS011;30969;51.052;17.056;2023-02-11T12:24:58;30.10;;;18.13;;
45232;SDS011;30969;51.052;17.056;2023-02-11T12:30:21;30.90;;;18.23;;
45232;SDS011;30969;51.052;17.056;2023-02-11T12:35:38;33.40;;;17.92;;
45232;SDS011;30969;51.052;17.056;2023-02-11T12:40:56;31.38;;;18.48;;
45232;SDS011;30969;51.052;17.056;2023-02-11T12:51:42;31.20;;;17.60;;
45232;SDS011;30969;51.052;17.056;2023-02-11T12:57:06;28.45;;;17.40;;
45232;SDS011;30969;51.052;17.056;2023-02-11T13:02:20;32.92;;;19.10;;
45232;SDS011;30969;51.052;17.056;2023-02-11T13:07:30;29.40;;;17.42;;
45232;SDS011;30969;51.052;17.056;2023-02-11T13:12:40;32.17;;;17.40;;
45232;SDS011;30969;51.052;17.056;2023-02-11T13:18:05;31.25;;;18.05;;
45232;SDS011;30969;51.052;17.056;2023-02-11T13:23:22;31.95;;;19.23;;
45232;SDS011;30969;51.052;17.056;2023-02-11T13:28:37;29.83;;;17.55;;
45232;SDS011;30969;51.052;17.056;2023-02-11T13:33:47;33.83;;;18.17;;
45232;SDS011;30969;51.052;17.056;2023-02-11T13:38:52;32.25;;;18.35;;
45232;SDS011;30969;51.052;17.056;2023-02-11T13:44:14;27.02;;;16.05;;
45232;SDS011;30969;51.052;17.056;2023-02-11T13:49:25;30.88;;;18.88;;
45232;SDS011;30969;51.052;17.056;2023-02-11T13:54:33;29.65;;;17.83;;
45232;SDS011;30969;51.052;17.056;2023-02-11T13:59:44;30.67;;;18.08;;
45232;SDS011;30969;51.052;17.056;2023-02-11T14:05:15;30.70;;;17.88;;
45232;SDS011;30969;51.052;17.056;2023-02-11T14:10:47;28.48;;;16.98;;
45232;SDS011;30969;51.052;17.056;2023-02-11T14:16:03;29.77;;;18.70;;
45232;SDS011;30969;51.052;17.056;2023-02-11T14:21:09;26.20;;;17.08;;
45232;SDS011;30969;51.052;17.056;2023-02-11T14:26:24;29.60;;;17.02;;
45232;SDS011;30969;51.052;17.056;2023-02-11T14:31:39;27.90;;;16.10;;
45232;SDS011;30969;51.052;17.056;2023-02-11T14:36:48;32.10;;;17.63;;
45232;SDS011;30969;51.052;17.056;2023-02-11T14:42:06;31.42;;;17.17;;
45232;SDS011;30969;51.052;17.056;2023-02-11T14:47:24;30.05;;;17.73;;
45232;SDS011;30969;51.052;17.056;2023-02-11T14:52:32;30.60;;;17.23;;
45232;SDS011;30969;51.052;17.056;2023-02-11T14:57:39;27.70;;;16.67;;
45232;SDS011;30969;51.052;17.056;2023-02-11T15:02:46;26.77;;;17.10;;
45232;SDS011;30969;51.052;17.056;2023-02-11T15:07:52;22.95;;;15.80;;
45232;SDS011;30969;51.052;17.056;2023-02-11T15:12:56;28.20;;;16.77;;
45232;SDS011;30969;51.052;17.056;2023-02-11T15:18:02;27.40;;;16.48;;
45232;SDS011;30969;51.052;17.056;2023-02-11T15:23:10;29.92;;;17.92;;
45232;SDS011;30969;51.052;17.056;2023-02-11T15:28:22;26.83;;;17.38;;
45232;SDS011;30969;51.052;17.056;2023-02-11T15:33:29;26.52;;;16.70;;
45232;SDS011;30969;51.052;17.056;2023-02-11T15:38:33;26.42;;;16.15;;
45232;SDS011;30969;51.052;17.056;2023-02-11T15:43:40;26.85;;;16.77;;
45232;SDS011;30969;51.052;17.056;2023-02-11T15:48:47;27.95;;;15.90;;
45232;SDS011;30969;51.052;17.056;2023-02-11T15:53:52;31.05;;;17.10;;
45232;SDS011;30969;51.052;17.056;2023-02-11T15:58:59;27.92;;;16.58;;
45232;SDS011;30969;51.052;17.056;2023-02-11T16:04:16;26.70;;;16.13;;
45232;SDS011;30969;51.052;17.056;2023-02-11T16:09:29;23.73;;;15.38;;
45232;SDS011;30969;51.052;17.056;2023-02-11T16:14:34;28.95;;;17.23;;
45232;SDS011;30969;51.052;17.056;2023-02-11T16:19:43;29.85;;;17.67;;
45232;SDS011;30969;51.052;17.056;2023-02-11T16:24:48;29.90;;;17.33;;
45232;SDS011;30969;51.052;17.056;2023-02-11T16:29:54;26.80;;;16.00;;
45232;SDS011;30969;51.052;17.056;2023-02-11T16:35:00;25.50;;;15.30;;
45232;SDS011;30969;51.052;17.056;2023-02-11T16:40:08;23.75;;;14.85;;
45232;SDS011;30969;51.052;17.056;2023-02-11T16:45:13;23.30;;;15.13;;
45232;SDS011;30969;51.052;17.056;2023-02-11T16:50:21;24.83;;;14.85;;
45232;SDS011;30969;51.052;17.056;2023-02-11T16:55:26;23.55;;;15.43;;
45232;SDS011;30969;51.052;17.056;2023-02-11T17:00:30;27.13;;;15.35;;
45232;SDS011;30969;51.052;17.056;2023-02-11T17:05:35;25.55;;;15.52;;
45232;SDS011;30969;51.052;17.056;2023-02-11T17:10:55;26.13;;;15.68;;
45232;SDS011;30969;51.052;17.056;2023-02-11T17:15:59;23.83;;;14.77;;
45232;SDS011;30969;51.052;17.056;2023-02-11T17:21:06;21.75;;;14.82;;
45232;SDS011;30969;51.052;17.056;2023-02-11T17:26:09;24.08;;;15.38;;
45232;SDS011;30969;51.052;17.056;2023-02-11T17:31:13;25.40;;;16.25;;
45232;SDS011;30969;51.052;17.056;2023-02-11T17:36:18;23.40;;;14.80;;
45232;SDS011;30969;51.052;17.056;2023-02-11T17:41:21;22.60;;;14.48;;
45232;SDS011;30969;51.052;17.056;2023-02-11T17:46:25;21.75;;;13.75;;
45232;SDS011;30969;51.052;17.056;2023-02-11T17:51:31;22.48;;;15.27;;
45232;SDS011;30969;51.052;17.056;2023-02-11T17:56:36;19.33;;;13.70;;
45232;SDS011;30969;51.052;17.056;2023-02-11T18:01:41;20.58;;;13.40;;
45232;SDS011;30969;51.052;17.056;2023-02-11T18:06:46;21.98;;;14.93;;
45232;SDS011;30969;51.052;17.056;2023-02-11T18:11:51;20.63;;;13.50;;
45232;SDS011;30969;51.052;17.056;2023-02-11T18:16:54;21.75;;;14.90;;
45232;SDS011;30969;51.052;17.056;2023-02-11T18:21:59;20.00;;;13.68;;
45232;SDS011;30969;51.052;17.056;2023-02-11T18:27:05;24.17;;;14.63;;
45232;SDS011;30969;51.052;17.056;2023-02-11T18:32:08;21.20;;;14.02;;
45232;SDS011;30969;51.052;17.056;2023-02-11T18:37:13;19.33;;;13.63;;
45232;SDS011;30969;51.052;17.056;2023-02-11T18:42:17;27.88;;;16.23;;
45232;SDS011;30969;51.052;17.056;2023-02-11T18:47:20;22.70;;;14.38;;
45232;SDS011;30969;51.052;17.056;2023-02-11T18:52:25;22.10;;;15.35;;
45232;SDS011;30969;51.052;17.056;2023-02-11T18:57:29;24.80;;;15.18;;
45232;SDS011;30969;51.052;17.056;2023-02-11T19:02:32;24.75;;;16.00;;
45232;SDS011;30969;51.052;17.056;2023-02-11T19:07:37;21.20;;;14.73;;
45232;SDS011;30969;51.052;17.056;2023-02-11T19:12:41;22.15;;;15.48;;
45232;SDS011;30969;51.052;17.056;2023-02-11T19:17:44;23.35;;;14.73;;
45232;SDS011;30969;51.052;17.056;2023-02-11T19:22:49;18.65;;;13.02;;
45232;SDS011;30969;51.052;17.056;2023-02-11T19:27:52;19.95;;;13.55;;
45232;SDS011;30969;51.052;17.056;2023-02-11T19:32:56;24.15;;;16.08;;
45232;SDS011;30969;51.052;17.056;2023-02-11T19:38:01;24.27;;;16.73;;
45232;SDS011;30969;51.052;17.056;2023-02-11T19:43:04;26.50;;;15.95;;
45232;SDS011;30969;51.052;17.056;2023-02-11T19:48:08;23.17;;;15.43;;
45232;SDS011;30969;51.052;17.056;2023-02-11T19:53:15;25.92;;;16.15;;
45232;SDS011;30969;51.052;17.056;2023-02-11T19:58:19;24.17;;;15.88;;
45232;SDS011;30969;51.052;17.056;2023-02-11T20:03:22;23.52;;;15.27;;
45232;SDS011;30969;51.052;17.056;2023-02-11T20:08:27;21.15;;;15.52;;
45232;SDS011;30969;51.052;17.056;2023-02-11T20:13:31;20.95;;;13.93;;
45232;SDS011;30969;51.052;17.056;2023-02-11T20:18:35;20.13;;;13.65;;
45232;SDS011;30969;51.052;17.056;2023-02-11T20:23:40;22.70;;;15.57;;
45232;SDS011;30969;51.052;17.056;2023-02-11T20:28:45;17.85;;;12.60;;
45232;SDS011;30969;51.052;17.056;2023-02-11T20:33:50;21.80;;;14.65;;
45232;SDS011;30969;51.052;17.056;2023-02-11T20:38:55;21.50;;;13.88;;
45232;SDS011;30969;51.052;17.056;2023-02-11T20:43:59;27.48;;;17.42;;
45232;SDS011;30969;51.052;17.056;2023-02-11T20:49:04;25.92;;;17.33;;
45232;SDS011;30969;51.052;17.056;2023-02-11T20:54:11;26.17;;;17.67;;
45232;SDS011;30969;51.052;17.056;2023-02-11T20:59:17;26.80;;;16.98;;
45232;SDS011;30969;51.052;17.056;2023-02-11T21:04:22;26.75;;;18.15;;
45232;SDS011;30969;51.052;17.056;2023-02-11T21:09:28;33.90;;;20.13;;
45232;SDS011;30969;51.052;17.056;2023-02-11T21:14:34;31.55;;;19.90;;
45232;SDS011;30969;51.052;17.056;2023-02-11T21:19:37;32.67;;;20.42;;
45232;SDS011;30969;51.052;17.056;2023-02-11T21:24:43;34.47;;;20.60;;
45232;SDS011;30969;51.052;17.056;2023-02-11T21:29:47;30.15;;;19.60;;
45232;SDS011;30969;51.052;17.056;2023-02-11T21:34:55;28.23;;;18.73;;
45232;SDS011;30969;51.052;17.056;2023-02-11T21:40:04;30.52;;;19.10;;
45232;SDS011;30969;51.052;17.056;2023-02-11T21:45:08;28.73;;;17.98;;
45232;SDS011;30969;51.052;17.056;2023-02-11T21:50:11;26.40;;;17.65;;
45232;SDS011;30969;51.052;17.056;2023-02-11T21:55:16;29.30;;;18.55;;
45232;SDS011;30969;51.052;17.056;2023-02-11T22:00:20;29.55;;;18.80;;
45232;SDS011;30969;51.052;17.056;2023-02-11T22:05:24;31.63;;;17.95;;
45232;SDS011;30969;51.052;17.056;2023-02-11T22:10:29;25.63;;;16.33;;
45232;SDS011;30969;51.052;17.056;2023-02-11T22:15:33;31.27;;;20.67;;
45232;SDS011;30969;51.052;17.056;2023-02-11T22:20:36;30.25;;;17.80;;
45232;SDS011;30969;51.052;17.056;2023-02-11T22:25:41;30.58;;;19.70;;
45232;SDS011;30969;51.052;17.056;2023-02-11T22:30:44;32.85;;;19.35;;
45232;SDS011;30969;51.052;17.056;2023-02-11T22:35:48;31.15;;;18.83;;
45232;SDS011;30969;51.052;17.056;2023-02-11T22:41:03;31.20;;;18.38;;
45232;SDS011;30969;51.052;17.056;2023-02-11T22:46:09;33.22;;;18.85;;
45232;SDS011;30969;51.052;17.056;2023-02-11T22:51:16;29.58;;;16.95;;
45232;SDS011;30969;51.052;17.056;2023-02-11T22:56:23;33.80;;;19.05;;
45232;SDS011;30969;51.052;17.056;2023-02-11T23:01:27;31.55;;;17.88;;
45232;SDS011;30969;51.052;17.056;2023-02-11T23:06:32;27.58;;;18.55;;
45232;SDS011;30969;51.052;17.056;2023-02-11T23:11:37;28.85;;;18.27;;
45232;SDS011;30969;51.052;17.056;2023-02-11T23:16:41;30.02;;;19.13;;
45232;SDS011;30969;51.052;17.056;2023-02-11T23:21:46;25.98;;;17.13;;
45232;SDS011;30969;51.052;17.056;2023-02-11T23:26:54;25.52;;;16.25;;
45232;SDS011;30969;51.052;17.056;2023-02-11T23:31:57;27.30;;;17.55;;
45232;SDS011;30969;51.052;17.056;2023-02-11T23:37:01;27.02;;;16.63;;
45232;SDS011;30969;51.052;17.056;2023-02-11T23:42:06;31.63;;;18.55;;
45232;SDS011;30969;51.052;17.056;2023-02-11T23:47:09;30.48;;;17.92;;
45232;SDS011;30969;51.052;17.056;2023-02-11T23:52:13;26.73;;;16.63;;
45232;SDS011;30969;51.052;17.056;2023-02-11T23:57:18;33.08;;;17.23;;
